sensor_id;sensor_type;location;lat;lon;timestamp;pressure;altitude;pressure_sealevel;temperature;humidity
42431;BME280;28070;47.462;19.036;2022-09-13T00:00:47;100163.22;;;13.15;70.29
42431;BME280;28070;47.462;19.036;2022-09-13T00:03:18;100160.91;;;13.08;70.38
42431;BME280;28070;47.462;19.036;2022-09-13T00:05:47;100154.41;;;12.96;70.35
42431;BME280;28070;47.462;19.036;2022-09-13T00:08:16;100158.19;;;12.90;70.55
42431;BME280;28070;47.462;19.036;2022-09-13T00:10:44;100159.03;;;12.91;70.21
42431;BME280;28070;47.462;19.036;2022-09-13T00:13:13;100167.28;;;12.85;69.79
42431;BME280;28070;47.462;19.036;2022-09-13T00:15:43;100167.41;;;12.82;70.54
42431;BME280;28070;47.462;19.036;2022-09-13T00:18:11;100161.06;;;12.86;70.00
42431;BME280;28070;47.462;19.036;2022-09-13T00:20:41;100166.44;;;12.84;69.88
42431;BME280;28070;47.462;19.036;2022-09-13T00:23:09;100162.06;;;12.83;70.27
42431;BME280;28070;47.462;19.036;2022-09-13T00:25:38;100162.41;;;12.76;71.03
42431;BME280;28070;47.462;19.036;2022-09-13T00:28:07;100158.22;;;12.70;71.46
42431;BME280;28070;47.462;19.036;2022-09-13T00:30:35;100158.16;;;12.72;71.42
42431;BME280;28070;47.462;19.036;2022-09-13T00:33:03;100158.22;;;12.70;71.50
42431;BME280;28070;47.462;19.036;2022-09-13T00:35:31;100152.97;;;12.68;71.54
42431;BME280;28070;47.462;19.036;2022-09-13T00:38:01;100155.63;;;12.68;71.54
42431;BME280;28070;47.462;19.036;2022-09-13T00:40:29;100154.59;;;12.73;72.00
42431;BME280;28070;47.462;19.036;2022-09-13T00:42:57;100146.75;;;12.70;71.10
42431;BME280;28070;47.462;19.036;2022-09-13T00:45:25;100157.16;;;12.54;72.15
42431;BME280;28070;47.462;19.036;2022-09-13T00:47:55;100156.13;;;12.58;71.75
42431;BME280;28070;47.462;19.036;2022-09-13T00:50:28;100157.00;;;12.58;72.07
42431;BME280;28070;47.462;19.036;2022-09-13T00:53:02;100149.94;;;12.57;72.08
42431;BME280;28070;47.462;19.036;2022-09-13T00:55:37;100149.94;;;12.57;72.02
42431;BME280;28070;47.462;19.036;2022-09-13T00:58:14;100152.00;;;12.51;72.01
42431;BME280;28070;47.462;19.036;2022-09-13T01:00:44;100155.25;;;12.37;72.70
42431;BME280;28070;47.462;19.036;2022-09-13T01:03:15;100155.34;;;12.35;73.36
42431;BME280;28070;47.462;19.036;2022-09-13T01:05:49;100153.00;;;12.28;73.77
42431;BME280;28070;47.462;19.036;2022-09-13T01:08:21;100154.94;;;12.24;73.70
42431;BME280;28070;47.462;19.036;2022-09-13T01:10:50;100158.09;;;12.12;74.39
42431;BME280;28070;47.462;19.036;2022-09-13T01:13:24;100155.56;;;12.09;74.27
42431;BME280;28070;47.462;19.036;2022-09-13T01:15:53;100152.88;;;12.11;73.85
42431;BME280;28070;47.462;19.036;2022-09-13T01:18:21;100156.59;;;12.05;73.98
42431;BME280;28070;47.462;19.036;2022-09-13T01:21:15;100152.38;;;12.01;73.74
42431;BME280;28070;47.462;19.036;2022-09-13T01:24:16;100151.78;;;11.94;74.04
42431;BME280;28070;47.462;19.036;2022-09-13T01:30:13;100150.38;;;11.86;74.67
42431;BME280;28070;47.462;19.036;2022-09-13T01:33:08;100151.78;;;11.94;74.63
42431;BME280;28070;47.462;19.036;2022-09-13T01:35:49;100149.44;;;11.87;74.49
42431;BME280;28070;47.462;19.036;2022-09-13T01:38:31;100153.75;;;11.89;74.49
42431;BME280;28070;47.462;19.036;2022-09-13T01:41:11;100152.75;;;11.92;74.01
42431;BME280;28070;47.462;19.036;2022-09-13T01:43:52;100144.94;;;11.89;74.23
42431;BME280;28070;47.462;19.036;2022-09-13T01:46:27;100142.50;;;11.84;74.13
42431;BME280;28070;47.462;19.036;2022-09-13T01:49:02;100140.78;;;11.83;74.11
42431;BME280;28070;47.462;19.036;2022-09-13T01:51:35;100147.91;;;11.81;74.22
42431;BME280;28070;47.462;19.036;2022-09-13T01:54:14;100137.91;;;11.66;74.78
42431;BME280;28070;47.462;19.036;2022-09-13T01:56:52;100145.19;;;11.61;75.38
42431;BME280;28070;47.462;19.036;2022-09-13T01:59:31;100140.88;;;11.58;75.45
42431;BME280;28070;47.462;19.036;2022-09-13T02:02:07;100147.25;;;11.53;75.34
42431;BME280;28070;47.462;19.036;2022-09-13T02:04:43;100137.91;;;11.44;75.80
42431;BME280;28070;47.462;19.036;2022-09-13T02:07:16;100146.66;;;11.46;75.60
42431;BME280;28070;47.462;19.036;2022-09-13T02:09:50;100138.81;;;11.43;76.20
42431;BME280;28070;47.462;19.036;2022-09-13T02:12:22;100134.50;;;11.40;76.04
42431;BME280;28070;47.462;19.036;2022-09-13T02:14:57;100132.00;;;11.37;76.19
42431;BME280;28070;47.462;19.036;2022-09-13T02:17:33;100130.28;;;11.36;75.82
42431;BME280;28070;47.462;19.036;2022-09-13T02:20:07;100132.25;;;11.31;76.14
42431;BME280;28070;47.462;19.036;2022-09-13T02:22:41;100127.31;;;11.22;77.60
42431;BME280;28070;47.462;19.036;2022-09-13T02:25:13;100129.78;;;11.27;76.90
42431;BME280;28070;47.462;19.036;2022-09-13T02:27:45;100123.41;;;11.32;76.87
42431;BME280;28070;47.462;19.036;2022-09-13T02:30:14;100127.69;;;11.35;76.22
42431;BME280;28070;47.462;19.036;2022-09-13T02:32:48;100127.81;;;11.32;76.14
42431;BME280;28070;47.462;19.036;2022-09-13T02:35:22;100127.91;;;11.29;75.96
42431;BME280;28070;47.462;19.036;2022-09-13T02:37:57;100119.50;;;11.19;76.65
42431;BME280;28070;47.462;19.036;2022-09-13T02:40:32;100130.50;;;11.08;78.10
42431;BME280;28070;47.462;19.036;2022-09-13T02:43:07;100132.38;;;11.05;77.70
42431;BME280;28070;47.462;19.036;2022-09-13T02:45:44;100132.16;;;11.11;77.77
42431;BME280;28070;47.462;19.036;2022-09-13T02:48:19;100120.53;;;11.15;77.34
42431;BME280;28070;47.462;19.036;2022-09-13T02:50:58;100113.53;;;11.14;76.95
42431;BME280;28070;47.462;19.036;2022-09-13T02:53:36;100118.06;;;11.10;77.06
42431;BME280;28070;47.462;19.036;2022-09-13T02:56:14;100117.78;;;11.18;77.32
42431;BME280;28070;47.462;19.036;2022-09-13T02:58:51;100119.44;;;11.20;76.14
42431;BME280;28070;47.462;19.036;2022-09-13T03:01:21;100119.25;;;11.25;75.84
42431;BME280;28070;47.462;19.036;2022-09-13T03:03:52;100112.25;;;11.24;76.01
42431;BME280;28070;47.462;19.036;2022-09-13T03:06:22;100118.66;;;11.18;76.32
42431;BME280;28070;47.462;19.036;2022-09-13T03:08:50;100119.97;;;11.07;76.26
42431;BME280;28070;47.462;19.036;2022-09-13T03:11:27;100112.22;;;11.02;76.79
42431;BME280;28070;47.462;19.036;2022-09-13T03:14:11;100113.59;;;10.89;78.71
42431;BME280;28070;47.462;19.036;2022-09-13T03:17:08;100104.34;;;10.77;79.31
42431;BME280;28070;47.462;19.036;2022-09-13T03:19:51;100106.50;;;10.66;79.71
42431;BME280;28070;47.462;19.036;2022-09-13T03:22:31;100112.66;;;10.67;79.41
42431;BME280;28070;47.462;19.036;2022-09-13T03:25:07;100106.75;;;10.60;80.10
42431;BME280;28070;47.462;19.036;2022-09-13T03:27:46;100110.91;;;10.67;79.38
42431;BME280;28070;47.462;19.036;2022-09-13T03:30:19;100104.72;;;10.67;78.86
42431;BME280;28070;47.462;19.036;2022-09-13T03:32:50;100096.81;;;10.67;79.02
42431;BME280;28070;47.462;19.036;2022-09-13T03:35:26;100095.50;;;10.55;80.56
42431;BME280;28070;47.462;19.036;2022-09-13T03:38:00;100091.59;;;10.42;81.00
42431;BME280;28070;47.462;19.036;2022-09-13T03:40:35;100094.25;;;10.42;81.67
42431;BME280;28070;47.462;19.036;2022-09-13T03:43:09;100091.59;;;10.42;81.45
42431;BME280;28070;47.462;19.036;2022-09-13T03:45:44;100091.13;;;10.54;80.60
42431;BME280;28070;47.462;19.036;2022-09-13T03:48:13;100089.25;;;10.57;79.90
42431;BME280;28070;47.462;19.036;2022-09-13T03:50:44;100089.31;;;10.56;79.87
42431;BME280;28070;47.462;19.036;2022-09-13T03:53:17;100091.84;;;10.59;80.15
42431;BME280;28070;47.462;19.036;2022-09-13T03:55:47;100098.03;;;10.58;79.60
42431;BME280;28070;47.462;19.036;2022-09-13T03:58:17;100084.72;;;10.61;79.94
42431;BME280;28070;47.462;19.036;2022-09-13T04:00:45;100089.19;;;10.59;79.28
42431;BME280;28070;47.462;19.036;2022-09-13T04:03:14;100096.47;;;10.52;79.79
42431;BME280;28070;47.462;19.036;2022-09-13T04:05:44;100087.69;;;10.52;80.60
42431;BME280;28070;47.462;19.036;2022-09-13T04:08:12;100088.59;;;10.51;79.98
42431;BME280;28070;47.462;19.036;2022-09-13T04:10:40;100097.44;;;10.50;79.98
42431;BME280;28070;47.462;19.036;2022-09-13T04:13:08;100096.75;;;10.45;80.07
42431;BME280;28070;47.462;19.036;2022-09-13T04:15:36;100086.25;;;10.43;80.59
42431;BME280;28070;47.462;19.036;2022-09-13T04:18:04;100087.31;;;10.38;80.16
42431;BME280;28070;47.462;19.036;2022-09-13T04:20:32;100089.91;;;10.39;80.85
42431;BME280;28070;47.462;19.036;2022-09-13T04:23:02;100086.41;;;10.39;80.27
42431;BME280;28070;47.462;19.036;2022-09-13T04:25:30;100085.53;;;10.38;80.53
42431;BME280;28070;47.462;19.036;2022-09-13T04:27:58;100093.41;;;10.40;80.49
42431;BME280;28070;47.462;19.036;2022-09-13T04:30:27;100088.13;;;10.40;80.34
42431;BME280;28070;47.462;19.036;2022-09-13T04:32:55;100095.13;;;10.41;81.06
42431;BME280;28070;47.462;19.036;2022-09-13T04:35:25;100093.56;;;10.35;80.59
42431;BME280;28070;47.462;19.036;2022-09-13T04:37:54;100093.69;;;10.32;80.44
42431;BME280;28070;47.462;19.036;2022-09-13T04:40:25;100095.19;;;10.39;80.17
42431;BME280;28070;47.462;19.036;2022-09-13T04:42:53;100094.06;;;10.46;79.35
42431;BME280;28070;47.462;19.036;2022-09-13T04:45:21;100091.28;;;10.49;79.67
42431;BME280;28070;47.462;19.036;2022-09-13T04:47:50;100093.88;;;10.51;78.41
42431;BME280;28070;47.462;19.036;2022-09-13T04:50:19;100099.00;;;10.55;78.66
42431;BME280;28070;47.462;19.036;2022-09-13T04:52:48;100091.72;;;10.62;77.91
42431;BME280;28070;47.462;19.036;2022-09-13T04:55:17;100095.06;;;10.67;77.83
42431;BME280;28070;47.462;19.036;2022-09-13T04:57:46;100100.22;;;10.70;77.63
42431;BME280;28070;47.462;19.036;2022-09-13T05:00:21;100094.03;;;10.71;77.89
42431;BME280;28070;47.462;19.036;2022-09-13T05:02:54;100097.59;;;10.70;77.98
42431;BME280;28070;47.462;19.036;2022-09-13T05:05:23;100098.50;;;10.69;78.12
42431;BME280;28070;47.462;19.036;2022-09-13T05:07:58;100103.41;;;10.78;78.10
42431;BME280;28070;47.462;19.036;2022-09-13T05:10:26;100104.34;;;10.77;77.45
42431;BME280;28070;47.462;19.036;2022-09-13T05:12:55;100097.34;;;10.76;78.31
42431;BME280;28070;47.462;19.036;2022-09-13T05:15:23;100099.13;;;10.76;78.02
42431;BME280;28070;47.462;19.036;2022-09-13T05:17:52;100102.34;;;10.84;78.04
42431;BME280;28070;47.462;19.036;2022-09-13T05:20:20;100102.91;;;10.92;78.22
42431;BME280;28070;47.462;19.036;2022-09-13T05:22:48;100104.47;;;10.98;77.95
42431;BME280;28070;47.462;19.036;2022-09-13T05:25:16;100103.41;;;11.02;77.87
42431;BME280;28070;47.462;19.036;2022-09-13T05:27:48;100115.03;;;10.98;77.78
42431;BME280;28070;47.462;19.036;2022-09-13T05:30:18;100106.00;;;11.03;78.37
42431;BME280;28070;47.462;19.036;2022-09-13T05:32:46;100102.09;;;11.13;78.05
42431;BME280;28070;47.462;19.036;2022-09-13T05:35:14;100102.88;;;11.15;77.03
42431;BME280;28070;47.462;19.036;2022-09-13T05:37:42;100099.28;;;11.18;78.89
42431;BME280;28070;47.462;19.036;2022-09-13T05:40:10;100106.59;;;11.33;77.87
42431;BME280;28070;47.462;19.036;2022-09-13T05:42:38;100102.63;;;11.45;76.88
42431;BME280;28070;47.462;19.036;2022-09-13T05:45:08;100086.25;;;11.57;76.19
42431;BME280;28070;47.462;19.036;2022-09-13T05:47:37;100096.38;;;11.68;75.76
42431;BME280;28070;47.462;19.036;2022-09-13T05:50:06;100104.88;;;11.76;74.96
42431;BME280;28070;47.462;19.036;2022-09-13T05:52:39;100102.81;;;11.84;75.30
42431;BME280;28070;47.462;19.036;2022-09-13T05:55:08;100098.78;;;11.96;74.52
42431;BME280;28070;47.462;19.036;2022-09-13T05:57:36;100104.53;;;12.05;74.55
42431;BME280;28070;47.462;19.036;2022-09-13T06:00:06;100102.19;;;12.20;74.43
42431;BME280;28070;47.462;19.036;2022-09-13T06:02:39;100109.22;;;12.40;73.27
42431;BME280;28070;47.462;19.036;2022-09-13T06:05:08;100106.03;;;12.52;72.30
42431;BME280;28070;47.462;19.036;2022-09-13T06:07:38;100110.88;;;12.62;72.00
42431;BME280;28070;47.462;19.036;2022-09-13T06:10:07;100110.16;;;12.78;71.53
42431;BME280;28070;47.462;19.036;2022-09-13T06:12:36;100103.38;;;12.91;70.88
42431;BME280;28070;47.462;19.036;2022-09-13T06:15:05;100106.31;;;13.04;70.65
42431;BME280;28070;47.462;19.036;2022-09-13T06:17:34;100111.06;;;13.16;69.92
42431;BME280;28070;47.462;19.036;2022-09-13T06:20:05;100111.69;;;13.22;69.70
42431;BME280;28070;47.462;19.036;2022-09-13T06:22:33;100110.34;;;13.31;69.38
42431;BME280;28070;47.462;19.036;2022-09-13T06:25:02;100117.66;;;13.45;69.39
42431;BME280;28070;47.462;19.036;2022-09-13T06:27:30;100112.69;;;13.56;68.71
42431;BME280;28070;47.462;19.036;2022-09-13T06:29:59;100112.00;;;13.70;69.41
42431;BME280;28070;47.462;19.036;2022-09-13T06:32:27;100111.56;;;13.79;67.97
42431;BME280;28070;47.462;19.036;2022-09-13T06:34:55;100113.00;;;13.86;67.68
42431;BME280;28070;47.462;19.036;2022-09-13T06:37:24;100108.91;;;13.96;66.93
42431;BME280;28070;47.462;19.036;2022-09-13T06:39:52;100106.75;;;14.04;66.37
42431;BME280;28070;47.462;19.036;2022-09-13T06:42:20;100111.28;;;14.20;65.91
42431;BME280;28070;47.462;19.036;2022-09-13T06:44:50;100106.19;;;14.32;64.70
42431;BME280;28070;47.462;19.036;2022-09-13T06:47:18;100110.72;;;14.48;63.82
42431;BME280;28070;47.462;19.036;2022-09-13T06:49:46;100117.06;;;14.62;61.83
42431;BME280;28070;47.462;19.036;2022-09-13T06:52:14;100115.38;;;14.77;61.40
42431;BME280;28070;47.462;19.036;2022-09-13T06:54:43;100106.88;;;14.86;60.66
42431;BME280;28070;47.462;19.036;2022-09-13T06:57:11;100104.41;;;14.99;60.38
42431;BME280;28070;47.462;19.036;2022-09-13T06:59:39;100123.00;;;15.16;58.90
42431;BME280;28070;47.462;19.036;2022-09-13T07:02:08;100110.63;;;15.31;58.44
42431;BME280;28070;47.462;19.036;2022-09-13T07:04:36;100114.41;;;15.43;58.54
42431;BME280;28070;47.462;19.036;2022-09-13T07:07:04;100115.72;;;15.51;57.51
42431;BME280;28070;47.462;19.036;2022-09-13T07:09:32;100120.44;;;15.62;56.62
42431;BME280;28070;47.462;19.036;2022-09-13T07:12:04;100113.63;;;15.72;56.58
42431;BME280;28070;47.462;19.036;2022-09-13T07:14:32;100117.16;;;15.88;57.41
42431;BME280;28070;47.462;19.036;2022-09-13T07:17:01;100120.53;;;16.06;56.73
42431;BME280;28070;47.462;19.036;2022-09-13T07:19:29;100119.25;;;16.13;55.95
42431;BME280;28070;47.462;19.036;2022-09-13T07:21:57;100122.28;;;16.22;55.00
42431;BME280;28070;47.462;19.036;2022-09-13T07:24:26;100126.56;;;16.24;54.42
42431;BME280;28070;47.462;19.036;2022-09-13T07:26:54;100118.69;;;16.37;54.36
42431;BME280;28070;47.462;19.036;2022-09-13T07:29:23;100119.88;;;16.47;53.34
42431;BME280;28070;47.462;19.036;2022-09-13T07:31:53;100119.50;;;16.53;52.93
42431;BME280;28070;47.462;19.036;2022-09-13T07:34:23;100126.94;;;16.62;52.07
42431;BME280;28070;47.462;19.036;2022-09-13T07:36:52;100124.69;;;16.70;51.03
42431;BME280;28070;47.462;19.036;2022-09-13T07:39:20;100118.91;;;16.78;51.23
42431;BME280;28070;47.462;19.036;2022-09-13T07:41:49;100123.75;;;16.86;51.68
42431;BME280;28070;47.462;19.036;2022-09-13T07:44:19;100121.72;;;16.89;50.81
42431;BME280;28070;47.462;19.036;2022-09-13T07:46:49;100127.66;;;16.94;50.93
42431;BME280;28070;47.462;19.036;2022-09-13T07:49:18;100124.03;;;16.95;51.56
42431;BME280;28070;47.462;19.036;2022-09-13T07:51:46;100133.38;;;17.02;51.29
42431;BME280;28070;47.462;19.036;2022-09-13T07:54:17;100131.16;;;17.09;52.00
42431;BME280;28070;47.462;19.036;2022-09-13T07:56:46;100125.06;;;17.21;51.58
42431;BME280;28070;47.462;19.036;2022-09-13T07:59:16;100135.59;;;17.37;51.11
42431;BME280;28070;47.462;19.036;2022-09-13T08:01:46;100118.44;;;17.41;50.72
42431;BME280;28070;47.462;19.036;2022-09-13T08:04:18;100116.81;;;17.39;50.57
42431;BME280;28070;47.462;19.036;2022-09-13T08:06:47;100121.03;;;17.43;50.22
42431;BME280;28070;47.462;19.036;2022-09-13T08:09:16;100120.41;;;17.52;49.99
42431;BME280;28070;47.462;19.036;2022-09-13T08:11:46;100129.19;;;17.54;49.70
42431;BME280;28070;47.462;19.036;2022-09-13T08:14:16;100134.97;;;17.60;49.90
42431;BME280;28070;47.462;19.036;2022-09-13T08:16:44;100132.53;;;17.57;49.82
42431;BME280;28070;47.462;19.036;2022-09-13T08:19:15;100138.81;;;17.71;50.76
42431;BME280;28070;47.462;19.036;2022-09-13T08:21:45;100126.03;;;17.88;50.00
42431;BME280;28070;47.462;19.036;2022-09-13T08:24:15;100125.88;;;17.77;48.90
42431;BME280;28070;47.462;19.036;2022-09-13T08:26:44;100126.47;;;17.68;48.70
42431;BME280;28070;47.462;19.036;2022-09-13T08:29:14;100121.72;;;17.73;48.16
42431;BME280;28070;47.462;19.036;2022-09-13T08:31:42;100123.38;;;17.88;49.19
42431;BME280;28070;47.462;19.036;2022-09-13T08:34:11;100130.56;;;18.01;49.41
42431;BME280;28070;47.462;19.036;2022-09-13T08:36:40;100106.31;;;18.04;48.38
42431;BME280;28070;47.462;19.036;2022-09-13T08:39:11;100118.31;;;18.11;48.90
42431;BME280;28070;47.462;19.036;2022-09-13T08:42:00;100106.16;;;18.19;48.46
42431;BME280;28070;47.462;19.036;2022-09-13T08:44:34;100101.88;;;18.17;48.45
42431;BME280;28070;47.462;19.036;2022-09-13T08:47:26;100117.47;;;18.23;48.91
42431;BME280;28070;47.462;19.036;2022-09-13T08:50:05;100111.69;;;18.16;48.95
42431;BME280;28070;47.462;19.036;2022-09-13T08:52:39;100118.22;;;18.25;48.71
42431;BME280;28070;47.462;19.036;2022-09-13T08:55:22;100117.28;;;18.39;48.97
42431;BME280;28070;47.462;19.036;2022-09-13T08:57:55;100102.53;;;18.59;48.74
42431;BME280;28070;47.462;19.036;2022-09-13T09:00:28;100118.47;;;18.60;46.73
42431;BME280;28070;47.462;19.036;2022-09-13T09:03:15;100115.50;;;18.65;46.73
42431;BME280;28070;47.462;19.036;2022-09-13T09:05:46;100112.53;;;18.69;46.20
42431;BME280;28070;47.462;19.036;2022-09-13T09:08:25;100110.25;;;18.76;46.24
42431;BME280;28070;47.462;19.036;2022-09-13T09:11:02;100103.66;;;18.81;46.30
42431;BME280;28070;47.462;19.036;2022-09-13T09:13:36;100107.16;;;18.95;45.90
42431;BME280;28070;47.462;19.036;2022-09-13T09:16:17;100104.59;;;18.93;45.80
42431;BME280;28070;47.462;19.036;2022-09-13T09:18:51;100104.78;;;19.03;45.48
42431;BME280;28070;47.462;19.036;2022-09-13T09:21:22;100104.34;;;19.09;45.11
42431;BME280;28070;47.462;19.036;2022-09-13T09:23:52;100088.91;;;19.13;44.25
42431;BME280;28070;47.462;19.036;2022-09-13T09:26:23;100091.16;;;19.19;44.08
42431;BME280;28070;47.462;19.036;2022-09-13T09:28:54;100081.09;;;19.22;44.95
42431;BME280;28070;47.462;19.036;2022-09-13T09:31:28;100076.19;;;19.40;44.18
42431;BME280;28070;47.462;19.036;2022-09-13T09:34:09;100080.66;;;19.52;43.56
42431;BME280;28070;47.462;19.036;2022-09-13T09:36:43;100075.28;;;19.52;43.60
42431;BME280;28070;47.462;19.036;2022-09-13T09:39:14;100075.50;;;19.62;43.26
42431;BME280;28070;47.462;19.036;2022-09-13T09:41:44;100075.69;;;19.72;44.11
42431;BME280;28070;47.462;19.036;2022-09-13T09:44:17;100075.56;;;19.73;43.58
42431;BME280;28070;47.462;19.036;2022-09-13T09:46:49;100068.38;;;19.74;43.77
42431;BME280;28070;47.462;19.036;2022-09-13T09:49:21;100062.09;;;19.86;44.24
42431;BME280;28070;47.462;19.036;2022-09-13T09:52:13;100073.72;;;19.97;43.98
42431;BME280;28070;47.462;19.036;2022-09-13T09:54:44;100067.25;;;20.00;43.72
42431;BME280;28070;47.462;19.036;2022-09-13T09:57:14;100054.31;;;19.94;43.10
42431;BME280;28070;47.462;19.036;2022-09-13T09:59:46;100049.94;;;20.04;43.13
42431;BME280;28070;47.462;19.036;2022-09-13T10:02:16;100047.44;;;20.25;43.02
42431;BME280;28070;47.462;19.036;2022-09-13T10:04:56;100041.75;;;20.41;42.73
42431;BME280;28070;47.462;19.036;2022-09-13T10:07:27;100032.03;;;20.51;41.56
42431;BME280;28070;47.462;19.036;2022-09-13T10:09:59;100039.06;;;20.41;41.25
42431;BME280;28070;47.462;19.036;2022-09-13T10:12:32;100031.78;;;20.43;41.55
42431;BME280;28070;47.462;19.036;2022-09-13T10:15:12;100039.59;;;20.57;40.93
42431;BME280;28070;47.462;19.036;2022-09-13T10:17:42;100025.31;;;20.68;40.54
42431;BME280;28070;47.462;19.036;2022-09-13T10:20:20;100031.53;;;20.68;40.73
42431;BME280;28070;47.462;19.036;2022-09-13T10:23:10;100024.47;;;20.67;41.12
42431;BME280;28070;47.462;19.036;2022-09-13T10:25:39;100021.91;;;20.66;41.05
42431;BME280;28070;47.462;19.036;2022-09-13T10:28:17;100031.91;;;20.64;41.38
42431;BME280;28070;47.462;19.036;2022-09-13T10:30:47;100019.47;;;20.63;41.36
42431;BME280;28070;47.462;19.036;2022-09-13T10:33:27;100014.97;;;20.63;41.97
42431;BME280;28070;47.462;19.036;2022-09-13T10:35:58;100012.63;;;20.81;41.88
42431;BME280;28070;47.462;19.036;2022-09-13T10:38:32;100011.03;;;20.90;41.21
42431;BME280;28070;47.462;19.036;2022-09-13T10:41:03;99996.63;;;20.91;41.42
42431;BME280;28070;47.462;19.036;2022-09-13T10:43:34;100001.00;;;21.03;41.47
42431;BME280;28070;47.462;19.036;2022-09-13T10:46:05;99997.88;;;20.98;41.44
42431;BME280;28070;47.462;19.036;2022-09-13T10:48:46;99999.25;;;21.24;41.97
42431;BME280;28070;47.462;19.036;2022-09-13T10:51:33;100007.56;;;21.32;41.92
42431;BME280;28070;47.462;19.036;2022-09-13T10:54:17;100005.34;;;21.37;41.25
42431;BME280;28070;47.462;19.036;2022-09-13T10:56:46;100006.53;;;21.44;41.17
42431;BME280;28070;47.462;19.036;2022-09-13T10:59:21;100008.41;;;21.33;40.35
42431;BME280;28070;47.462;19.036;2022-09-13T11:02:04;100007.69;;;21.31;39.52
42431;BME280;28070;47.462;19.036;2022-09-13T11:07:49;100008.91;;;21.59;39.93
42431;BME280;28070;47.462;19.036;2022-09-13T11:10:23;99997.75;;;21.74;39.46
42431;BME280;28070;47.462;19.036;2022-09-13T11:12:58;99991.03;;;21.69;38.82
42431;BME280;28070;47.462;19.036;2022-09-13T11:15:39;99998.16;;;21.59;39.45
42431;BME280;28070;47.462;19.036;2022-09-13T11:18:28;99999.41;;;21.55;39.26
42431;BME280;28070;47.462;19.036;2022-09-13T11:21:11;99990.50;;;21.54;39.40
42431;BME280;28070;47.462;19.036;2022-09-13T11:23:58;99990.91;;;21.70;39.66
42431;BME280;28070;47.462;19.036;2022-09-13T11:26:41;99991.13;;;21.79;39.04
42431;BME280;28070;47.462;19.036;2022-09-13T11:29:23;99996.84;;;21.85;38.83
42431;BME280;28070;47.462;19.036;2022-09-13T11:32:07;99986.53;;;21.90;38.73
42431;BME280;28070;47.462;19.036;2022-09-13T11:34:41;99978.28;;;22.03;38.85
42431;BME280;28070;47.462;19.036;2022-09-13T11:37:25;99975.34;;;22.06;38.63
42431;BME280;28070;47.462;19.036;2022-09-13T11:40:17;99972.66;;;22.27;38.33
42431;BME280;28070;47.462;19.036;2022-09-13T11:42:59;99969.88;;;22.38;38.19
42431;BME280;28070;47.462;19.036;2022-09-13T11:45:37;99959.22;;;22.67;37.94
42431;BME280;28070;47.462;19.036;2022-09-13T11:48:35;99949.19;;;22.79;38.06
42431;BME280;28070;47.462;19.036;2022-09-13T11:51:15;99958.53;;;22.75;36.81
42431;BME280;28070;47.462;19.036;2022-09-13T11:54:06;99951.31;;;22.75;36.20
42431;BME280;28070;47.462;19.036;2022-09-13T11:56:41;99946.31;;;23.01;35.53
42431;BME280;28070;47.462;19.036;2022-09-13T11:59:20;99950.25;;;23.07;35.13
42431;BME280;28070;47.462;19.036;2022-09-13T12:01:56;99942.06;;;23.28;35.69
42431;BME280;28070;47.462;19.036;2022-09-13T12:04:32;99948.59;;;23.35;35.85
42431;BME280;28070;47.462;19.036;2022-09-13T12:07:10;99944.91;;;23.26;34.84
42431;BME280;28070;47.462;19.036;2022-09-13T12:09:46;99953.13;;;23.54;35.06
42431;BME280;28070;47.462;19.036;2022-09-13T12:12:19;99951.44;;;23.53;34.50
42431;BME280;28070;47.462;19.036;2022-09-13T12:14:54;99944.78;;;23.76;34.04
42431;BME280;28070;47.462;19.036;2022-09-13T12:17:26;99948.56;;;23.93;33.87
42431;BME280;28070;47.462;19.036;2022-09-13T12:19:59;99946.59;;;23.95;33.69
42431;BME280;28070;47.462;19.036;2022-09-13T12:22:33;99943.88;;;23.95;33.41
42431;BME280;28070;47.462;19.036;2022-09-13T12:25:04;99941.50;;;23.72;33.39
42431;BME280;28070;47.462;19.036;2022-09-13T12:27:42;99937.94;;;23.91;32.89
42431;BME280;28070;47.462;19.036;2022-09-13T12:30:15;99940.88;;;23.98;33.33
42431;BME280;28070;47.462;19.036;2022-09-13T12:32:44;99936.38;;;23.89;33.41
42431;BME280;28070;47.462;19.036;2022-09-13T12:35:22;99933.25;;;23.84;33.54
42431;BME280;28070;47.462;19.036;2022-09-13T12:38:16;99930.72;;;23.82;33.68
42431;BME280;28070;47.462;19.036;2022-09-13T12:41:04;99927.69;;;23.95;33.74
42431;BME280;28070;47.462;19.036;2022-09-13T12:52:39;99930.38;;;24.04;34.08
42431;BME280;28070;47.462;19.036;2022-09-13T13:01:08;99920.78;;;23.73;35.27
42431;BME280;28070;47.462;19.036;2022-09-13T13:03:45;99920.91;;;23.81;35.32
42431;BME280;28070;47.462;19.036;2022-09-13T13:06:25;99918.88;;;24.02;35.12
42431;BME280;28070;47.462;19.036;2022-09-13T13:08:58;99924.97;;;24.14;34.59
42431;BME280;28070;47.462;19.036;2022-09-13T13:11:28;99917.03;;;24.03;34.84
42431;BME280;28070;47.462;19.036;2022-09-13T13:14:42;99913.41;;;24.31;34.32
42431;BME280;28070;47.462;19.036;2022-09-13T13:17:42;99913.38;;;24.69;34.18
42431;BME280;28070;47.462;19.036;2022-09-13T13:23:25;99912.38;;;24.87;33.71
42431;BME280;28070;47.462;19.036;2022-09-13T13:26:07;99906.91;;;24.52;34.16
42431;BME280;28070;47.462;19.036;2022-09-13T13:29:13;99898.16;;;24.68;34.05
42431;BME280;28070;47.462;19.036;2022-09-13T13:32:11;99905.72;;;25.27;33.17
42431;BME280;28070;47.462;19.036;2022-09-13T13:34:42;99905.28;;;24.41;34.40
42431;BME280;28070;47.462;19.036;2022-09-13T13:37:31;99898.75;;;24.34;34.71
42431;BME280;28070;47.462;19.036;2022-09-13T13:40:11;99905.78;;;24.54;34.39